sensor_id;sensor_type;location;lat;lon;timestamp;pressure;altitude;pressure_sealevel;temperature;humidity
9695;BME280;4690;52.422;13.486;2023-09-19T00:13:27;100329.91;;;20.43;77.76
9695;BME280;4690;52.422;13.486;2023-09-19T00:15:54;100326.09;;;20.39;77.74
9695;BME280;4690;52.422;13.486;2023-09-19T00:18:21;100336.16;;;20.35;77.29
9695;BME280;4690;52.422;13.486;2023-09-19T00:20:47;100325.66;;;20.32;77.85
9695;BME280;4690;52.422;13.486;2023-09-19T00:23:15;100327.06;;;20.29;77.80
9695;BME280;4690;52.422;13.486;2023-09-19T00:25:40;100326.13;;;20.20;78.19
9695;BME280;4690;52.422;13.486;2023-09-19T00:28:07;100329.94;;;20.24;78.08
9695;BME280;4690;52.422;13.486;2023-09-19T00:30:35;100335.13;;;20.31;77.99
9695;BME280;4690;52.422;13.486;2023-09-19T00:33:04;100325.97;;;20.30;77.70
9695;BME280;4690;52.422;13.486;2023-09-19T00:35:31;100329.34;;;20.27;77.60
9695;BME280;4690;52.422;13.486;2023-09-19T00:37:58;100331.81;;;20.29;77.55
9695;BME280;4690;52.422;13.486;2023-09-19T00:40:24;100338.22;;;20.29;77.49
9695;BME280;4690;52.422;13.486;2023-09-19T00:42:51;100329.03;;;20.29;77.39
9695;BME280;4690;52.422;13.486;2023-09-19T00:45:17;100326.56;;;20.27;77.40
9695;BME280;4690;52.422;13.486;2023-09-19T00:47:51;100326.66;;;20.22;77.59
9695;BME280;4690;52.422;13.486;2023-09-19T00:50:19;100329.44;;;20.22;77.70
9695;BME280;4690;52.422;13.486;2023-09-19T00:52:49;100327.47;;;20.23;77.68
9695;BME280;4690;52.422;13.486;2023-09-19T00:55:17;100325.91;;;20.17;77.93
9695;BME280;4690;52.422;13.486;2023-09-19T00:57:46;100328.97;;;20.15;77.93
9695;BME280;4690;52.422;13.486;2023-09-19T01:00:13;100333.50;;;20.11;77.99
9695;BME280;4690;52.422;13.486;2023-09-19T01:02:42;100333.25;;;20.07;78.04
9695;BME280;4690;52.422;13.486;2023-09-19T01:05:09;100334.09;;;20.08;78.25
9695;BME280;4690;52.422;13.486;2023-09-19T01:07:36;100331.38;;;20.03;78.00
9695;BME280;4690;52.422;13.486;2023-09-19T01:10:08;100315.81;;;20.02;78.22
9695;BME280;4690;52.422;13.486;2023-09-19T01:18:25;100333.47;;;19.92;78.43
9695;BME280;4690;52.422;13.486;2023-09-19T01:21:28;100342.72;;;19.87;78.39
9695;BME280;4690;52.422;13.486;2023-09-19T01:27:36;100324.75;;;19.80;78.58
9695;BME280;4690;52.422;13.486;2023-09-19T01:30:20;100334.28;;;19.74;78.91
9695;BME280;4690;52.422;13.486;2023-09-19T01:32:51;100328.44;;;19.75;79.07
9695;BME280;4690;52.422;13.486;2023-09-19T01:35:18;100335.34;;;19.78;78.96
9695;BME280;4690;52.422;13.486;2023-09-19T01:37:44;100327.38;;;19.71;78.76
9695;BME280;4690;52.422;13.486;2023-09-19T01:40:14;100329.91;;;19.67;79.20
9695;BME280;4690;52.422;13.486;2023-09-19T01:42:52;100335.19;;;19.69;78.90
9695;BME280;4690;52.422;13.486;2023-09-19T01:49:01;100346.09;;;19.60;79.33
9695;BME280;4690;52.422;13.486;2023-09-19T01:51:50;100336.03;;;19.64;79.22
9695;BME280;4690;52.422;13.486;2023-09-19T01:54:26;100338.38;;;19.57;79.40
9695;BME280;4690;52.422;13.486;2023-09-19T01:57:16;100337.00;;;19.55;79.86
9695;BME280;4690;52.422;13.486;2023-09-19T01:59:54;100336.47;;;19.53;80.02
9695;BME280;4690;52.422;13.486;2023-09-19T02:02:24;100339.47;;;19.56;79.92
9695;BME280;4690;52.422;13.486;2023-09-19T02:04:51;100347.31;;;19.54;80.02
9695;BME280;4690;52.422;13.486;2023-09-19T02:07:17;100341.97;;;19.58;79.98
9695;BME280;4690;52.422;13.486;2023-09-19T02:09:43;100339.19;;;19.58;79.68
9695;BME280;4690;52.422;13.486;2023-09-19T02:12:09;100346.75;;;19.52;79.92
9695;BME280;4690;52.422;13.486;2023-09-19T02:14:35;100349.38;;;19.43;80.06
9695;BME280;4690;52.422;13.486;2023-09-19T02:17:04;100352.44;;;19.42;80.50
9695;BME280;4690;52.422;13.486;2023-09-19T02:19:38;100346.81;;;19.47;80.15
9695;BME280;4690;52.422;13.486;2023-09-19T02:22:05;100354.56;;;19.50;80.16
9695;BME280;4690;52.422;13.486;2023-09-19T02:24:38;100363.78;;;19.45;80.15
9695;BME280;4690;52.422;13.486;2023-09-19T02:27:05;100352.78;;;19.35;80.66
9695;BME280;4690;52.422;13.486;2023-09-19T02:29:31;100356.69;;;19.34;80.48
9695;BME280;4690;52.422;13.486;2023-09-19T02:32:00;100360.81;;;19.37;80.72
9695;BME280;4690;52.422;13.486;2023-09-19T02:34:28;100353.66;;;19.31;80.82
9695;BME280;4690;52.422;13.486;2023-09-19T02:36:54;100363.09;;;19.35;80.24
9695;BME280;4690;52.422;13.486;2023-09-19T02:39:21;100364.00;;;19.25;80.81
9695;BME280;4690;52.422;13.486;2023-09-19T02:41:49;100354.81;;;19.30;80.91
9695;BME280;4690;52.422;13.486;2023-09-19T02:44:15;100360.34;;;19.30;80.56
9695;BME280;4690;52.422;13.486;2023-09-19T02:46:41;100365.88;;;19.35;80.34
9695;BME280;4690;52.422;13.486;2023-09-19T02:49:07;100362.81;;;19.31;80.25
9695;BME280;4690;52.422;13.486;2023-09-19T02:51:33;100362.81;;;19.31;80.55
9695;BME280;4690;52.422;13.486;2023-09-19T02:54:00;100368.97;;;19.28;80.53
9695;BME280;4690;52.422;13.486;2023-09-19T02:56:26;100380.09;;;19.28;80.47
9695;BME280;4690;52.422;13.486;2023-09-19T02:58:52;100387.59;;;19.27;80.63
9695;BME280;4690;52.422;13.486;2023-09-19T03:01:18;100393.19;;;19.22;81.06
9695;BME280;4690;52.422;13.486;2023-09-19T03:03:45;100393.50;;;19.21;80.78
9695;BME280;4690;52.422;13.486;2023-09-19T03:06:11;100395.97;;;19.22;80.80
9695;BME280;4690;52.422;13.486;2023-09-19T03:08:38;100396.53;;;19.24;80.94
9695;BME280;4690;52.422;13.486;2023-09-19T03:11:09;100394.44;;;19.11;81.02
9695;BME280;4690;52.422;13.486;2023-09-19T03:13:37;100390.88;;;19.06;81.48
9695;BME280;4690;52.422;13.486;2023-09-19T03:16:04;100399.25;;;19.00;81.58
9695;BME280;4690;52.422;13.486;2023-09-19T03:18:36;100400.34;;;19.04;81.71
9695;BME280;4690;52.422;13.486;2023-09-19T03:21:02;100402.28;;;19.04;81.80
9695;BME280;4690;52.422;13.486;2023-09-19T03:23:29;100399.16;;;19.11;81.93
9695;BME280;4690;52.422;13.486;2023-09-19T03:25:55;100398.03;;;19.12;81.73
9695;BME280;4690;52.422;13.486;2023-09-19T03:28:22;100401.34;;;19.14;81.62
9695;BME280;4690;52.422;13.486;2023-09-19T03:31:04;100396.03;;;19.17;81.41
9695;BME280;4690;52.422;13.486;2023-09-19T03:33:30;100404.09;;;19.19;80.80
9695;BME280;4690;52.422;13.486;2023-09-19T03:35:58;100405.22;;;19.18;80.78
9695;BME280;4690;52.422;13.486;2023-09-19T03:38:25;100406.63;;;19.15;80.63
9695;BME280;4690;52.422;13.486;2023-09-19T03:40:51;100397.97;;;19.17;80.97
9695;BME280;4690;52.422;13.486;2023-09-19T03:43:17;100408.50;;;19.20;80.70
9695;BME280;4690;52.422;13.486;2023-09-19T03:45:43;100422.34;;;19.25;80.55
9695;BME280;4690;52.422;13.486;2023-09-19T03:48:13;100417.38;;;19.22;80.64
9695;BME280;4690;52.422;13.486;2023-09-19T03:50:39;100420.72;;;19.24;80.46
9695;BME280;4690;52.422;13.486;2023-09-19T03:53:05;100418.94;;;19.33;80.36
9695;BME280;4690;52.422;13.486;2023-09-19T03:55:33;100428.91;;;19.34;80.02
9695;BME280;4690;52.422;13.486;2023-09-19T03:58:05;100429.00;;;19.29;79.28
9695;BME280;4690;52.422;13.486;2023-09-19T04:00:31;100424.59;;;19.23;79.51
9695;BME280;4690;52.422;13.486;2023-09-19T04:02:57;100432.66;;;19.24;79.46
9695;BME280;4690;52.422;13.486;2023-09-19T04:05:24;100435.19;;;19.21;78.49
9695;BME280;4690;52.422;13.486;2023-09-19T04:07:50;100428.16;;;19.29;78.08
9695;BME280;4690;52.422;13.486;2023-09-19T04:10:16;100426.16;;;19.34;77.03
9695;BME280;4690;52.422;13.486;2023-09-19T04:12:55;100432.28;;;19.31;76.50
9695;BME280;4690;52.422;13.486;2023-09-19T04:15:21;100431.19;;;19.32;75.80
9695;BME280;4690;52.422;13.486;2023-09-19T04:17:51;100435.34;;;19.35;75.99
9695;BME280;4690;52.422;13.486;2023-09-19T04:20:18;100439.53;;;19.32;75.86
9695;BME280;4690;52.422;13.486;2023-09-19T04:22:45;100436.69;;;19.37;75.29
9695;BME280;4690;52.422;13.486;2023-09-19T04:25:12;100445.03;;;19.37;75.16
9695;BME280;4690;52.422;13.486;2023-09-19T04:27:38;100445.03;;;19.37;75.61
9695;BME280;4690;52.422;13.486;2023-09-19T04:30:06;100444.50;;;19.35;75.48
9695;BME280;4690;52.422;13.486;2023-09-19T04:32:36;100448.91;;;19.36;75.44
9695;BME280;4690;52.422;13.486;2023-09-19T04:35:04;100459.84;;;19.27;75.74
9695;BME280;4690;52.422;13.486;2023-09-19T04:37:31;100457.06;;;19.27;75.94
9695;BME280;4690;52.422;13.486;2023-09-19T04:39:58;100465.13;;;19.29;75.69
9695;BME280;4690;52.422;13.486;2023-09-19T04:42:23;100467.13;;;19.23;75.79
9695;BME280;4690;52.422;13.486;2023-09-19T04:44:51;100467.69;;;19.20;76.05
9695;BME280;4690;52.422;13.486;2023-09-19T04:47:18;100474.09;;;19.21;76.22
9695;BME280;4690;52.422;13.486;2023-09-19T04:49:44;100480.47;;;19.21;75.91
9695;BME280;4690;52.422;13.486;2023-09-19T04:52:09;100480.81;;;19.15;76.06
9695;BME280;4690;52.422;13.486;2023-09-19T04:54:35;100486.44;;;19.04;76.62
9695;BME280;4690;52.422;13.486;2023-09-19T04:57:01;100478.97;;;19.00;76.41
9695;BME280;4690;52.422;13.486;2023-09-19T04:59:27;100484.81;;;18.98;76.44
9695;BME280;4690;52.422;13.486;2023-09-19T05:01:54;100503.38;;;19.03;76.28
9695;BME280;4690;52.422;13.486;2023-09-19T05:04:19;100493.44;;;18.97;75.77
9695;BME280;4690;52.422;13.486;2023-09-19T05:06:45;100494.31;;;18.92;75.93
9695;BME280;4690;52.422;13.486;2023-09-19T05:09:11;100493.47;;;18.92;75.45
9695;BME280;4690;52.422;13.486;2023-09-19T05:11:36;100497.59;;;18.94;74.92
9695;BME280;4690;52.422;13.486;2023-09-19T05:14:04;100505.41;;;18.92;74.70
9695;BME280;4690;52.422;13.486;2023-09-19T05:16:30;100504.56;;;18.92;74.76
9695;BME280;4690;52.422;13.486;2023-09-19T05:18:59;100512.91;;;18.92;74.30
9695;BME280;4690;52.422;13.486;2023-09-19T05:21:26;100511.53;;;18.89;74.54
9695;BME280;4690;52.422;13.486;2023-09-19T05:23:54;100516.56;;;18.87;74.10
9695;BME280;4690;52.422;13.486;2023-09-19T05:26:21;100524.91;;;18.82;74.09
9695;BME280;4690;52.422;13.486;2023-09-19T05:28:47;100532.94;;;18.84;74.15
9695;BME280;4690;52.422;13.486;2023-09-19T05:31:15;100543.75;;;18.90;73.90
9695;BME280;4690;52.422;13.486;2023-09-19T05:33:42;100533.25;;;18.82;73.34
9695;BME280;4690;52.422;13.486;2023-09-19T05:36:08;100537.09;;;18.86;73.13
9695;BME280;4690;52.422;13.486;2023-09-19T05:38:36;100546.56;;;18.85;73.54
9695;BME280;4690;52.422;13.486;2023-09-19T05:41:02;100541.03;;;18.80;73.01
9695;BME280;4690;52.422;13.486;2023-09-19T05:43:28;100554.94;;;18.75;73.08
9695;BME280;4690;52.422;13.486;2023-09-19T05:45:54;100546.59;;;18.75;72.88
9695;BME280;4690;52.422;13.486;2023-09-19T05:48:21;100554.63;;;18.81;72.96
9695;BME280;4690;52.422;13.486;2023-09-19T05:50:48;100561.59;;;18.79;72.88
9695;BME280;4690;52.422;13.486;2023-09-19T05:53:15;100569.63;;;18.80;72.12
9695;BME280;4690;52.422;13.486;2023-09-19T05:55:41;100571.31;;;18.76;72.24
9695;BME280;4690;52.422;13.486;2023-09-19T05:58:07;100575.47;;;18.79;71.95
9695;BME280;4690;52.422;13.486;2023-09-19T06:00:34;100581.00;;;18.84;71.58
9695;BME280;4690;52.422;13.486;2023-09-19T06:03:00;100590.72;;;18.87;71.62
9695;BME280;4690;52.422;13.486;2023-09-19T06:05:27;100585.75;;;18.78;71.70
9695;BME280;4690;52.422;13.486;2023-09-19T06:07:54;100583.81;;;18.79;71.42
9695;BME280;4690;52.422;13.486;2023-09-19T06:10:20;100599.06;;;18.81;71.75
9695;BME280;4690;52.422;13.486;2023-09-19T06:12:46;100596.81;;;18.84;71.21
9695;BME280;4690;52.422;13.486;2023-09-19T06:15:13;100596.25;;;18.87;71.18
9695;BME280;4690;52.422;13.486;2023-09-19T06:17:55;100600.38;;;18.89;70.86
9695;BME280;4690;52.422;13.486;2023-09-19T06:20:23;100602.31;;;18.94;70.93
9695;BME280;4690;52.422;13.486;2023-09-19T06:22:50;100596.97;;;19.08;70.18
9695;BME280;4690;52.422;13.486;2023-09-19T06:25:16;100608.25;;;19.21;69.93
9695;BME280;4690;52.422;13.486;2023-09-19T06:27:47;100612.66;;;19.27;68.81
9695;BME280;4690;52.422;13.486;2023-09-19T06:30:13;100618.53;;;19.21;68.64
9695;BME280;4690;52.422;13.486;2023-09-19T06:32:40;100616.81;;;19.30;67.91
9695;BME280;4690;52.422;13.486;2023-09-19T06:35:13;100611.22;;;19.35;67.99
9695;BME280;4690;52.422;13.486;2023-09-19T06:37:41;100614.63;;;19.27;67.29
9695;BME280;4690;52.422;13.486;2023-09-19T06:42:51;100622.25;;;19.45;67.39
9695;BME280;4690;52.422;13.486;2023-09-19T06:45:18;100625.78;;;19.56;66.50
9695;BME280;4690;52.422;13.486;2023-09-19T06:47:53;100631.31;;;19.61;66.34
9695;BME280;4690;52.422;13.486;2023-09-19T06:50:23;100633.16;;;19.76;65.64
9695;BME280;4690;52.422;13.486;2023-09-19T06:52:54;100636.09;;;19.90;65.02
9695;BME280;4690;52.422;13.486;2023-09-19T06:55:22;100634.72;;;19.87;65.47
9695;BME280;4690;52.422;13.486;2023-09-19T06:57:50;100636.38;;;19.93;64.93
9695;BME280;4690;52.422;13.486;2023-09-19T07:00:16;100635.94;;;20.10;64.79
9695;BME280;4690;52.422;13.486;2023-09-19T07:03:01;100653.91;;;20.18;63.35
9695;BME280;4690;52.422;13.486;2023-09-19T07:05:27;100644.69;;;20.23;63.71
9695;BME280;4690;52.422;13.486;2023-09-19T07:07:53;100652.63;;;20.34;64.02
9695;BME280;4690;52.422;13.486;2023-09-19T07:10:27;100644.41;;;20.53;63.05
9695;BME280;4690;52.422;13.486;2023-09-19T07:13:11;100646.09;;;20.73;62.36
9695;BME280;4690;52.422;13.486;2023-09-19T07:15:38;100644.38;;;20.77;61.93
9695;BME280;4690;52.422;13.486;2023-09-19T07:18:07;100640.63;;;21.06;61.58
9695;BME280;4690;52.422;13.486;2023-09-19T07:20:36;100653.69;;;21.30;60.76
9695;BME280;4690;52.422;13.486;2023-09-19T07:23:02;100651.25;;;21.47;59.68
9695;BME280;4690;52.422;13.486;2023-09-19T07:25:29;100657.25;;;21.35;59.38
9695;BME280;4690;52.422;13.486;2023-09-19T07:27:56;100655.06;;;21.51;58.82
9695;BME280;4690;52.422;13.486;2023-09-19T07:30:26;100648.84;;;21.40;57.96
9695;BME280;4690;52.422;13.486;2023-09-19T07:32:52;100664.28;;;21.52;57.66
9695;BME280;4690;52.422;13.486;2023-09-19T07:35:18;100669.66;;;21.24;57.26
9695;BME280;4690;52.422;13.486;2023-09-19T07:37:49;100671.53;;;21.28;59.27
9695;BME280;4690;52.422;13.486;2023-09-19T07:40:19;100667.09;;;21.27;57.32
9695;BME280;4690;52.422;13.486;2023-09-19T07:42:46;100677.22;;;21.23;57.32
9695;BME280;4690;52.422;13.486;2023-09-19T07:45:13;100676.19;;;21.38;58.32
9695;BME280;4690;52.422;13.486;2023-09-19T07:47:47;100681.56;;;21.30;55.85
9695;BME280;4690;52.422;13.486;2023-09-19T07:50:18;100680.13;;;21.37;55.28
9695;BME280;4690;52.422;13.486;2023-09-19T07:52:46;100693.53;;;21.54;55.43
9695;BME280;4690;52.422;13.486;2023-09-19T07:55:12;100685.59;;;21.42;54.78
9695;BME280;4690;52.422;13.486;2023-09-19T07:57:43;100685.38;;;21.39;54.22
9695;BME280;4690;52.422;13.486;2023-09-19T08:00:10;100686.56;;;21.33;54.22
9695;BME280;4690;52.422;13.486;2023-09-19T08:02:40;100695.56;;;21.48;54.82
9695;BME280;4690;52.422;13.486;2023-09-19T08:05:10;100694.63;;;21.53;53.68
9695;BME280;4690;52.422;13.486;2023-09-19T08:07:40;100706.00;;;21.57;53.57
9695;BME280;4690;52.422;13.486;2023-09-19T08:10:08;100710.78;;;21.56;53.53
9695;BME280;4690;52.422;13.486;2023-09-19T08:12:43;100709.66;;;21.57;52.70
9695;BME280;4690;52.422;13.486;2023-09-19T08:15:18;100711.94;;;21.31;53.00
9695;BME280;4690;52.422;13.486;2023-09-19T08:17:48;100706.28;;;21.36;53.21
9695;BME280;4690;52.422;13.486;2023-09-19T08:20:15;100705.34;;;21.46;53.50
9695;BME280;4690;52.422;13.486;2023-09-19T08:22:53;100702.34;;;21.61;52.28
9695;BME280;4690;52.422;13.486;2023-09-19T08:25:23;100683.22;;;21.87;52.46
9695;BME280;4690;52.422;13.486;2023-09-19T08:27:50;100690.84;;;21.82;50.86
9695;BME280;4690;52.422;13.486;2023-09-19T08:30:19;100689.28;;;21.76;51.05
9695;BME280;4690;52.422;13.486;2023-09-19T08:32:50;100705.44;;;21.60;51.05
9695;BME280;4690;52.422;13.486;2023-09-19T08:35:16;100707.00;;;21.47;50.42
9695;BME280;4690;52.422;13.486;2023-09-19T08:37:44;100714.81;;;21.26;50.72
9695;BME280;4690;52.422;13.486;2023-09-19T08:40:13;100722.63;;;21.24;51.14
9695;BME280;4690;52.422;13.486;2023-09-19T08:42:56;100718.16;;;21.23;51.46
9695;BME280;4690;52.422;13.486;2023-09-19T08:45:26;100706.53;;;20.97;51.04
9695;BME280;4690;52.422;13.486;2023-09-19T08:50:42;100715.66;;;21.02;52.45
9695;BME280;4690;52.422;13.486;2023-09-19T08:53:22;100709.66;;;21.14;51.91
9695;BME280;4690;52.422;13.486;2023-09-19T08:55:53;100739.03;;;21.25;51.10
9695;BME280;4690;52.422;13.486;2023-09-19T08:58:26;100730.88;;;21.10;49.37
9695;BME280;4690;52.422;13.486;2023-09-19T09:00:56;100728.84;;;21.40;49.75
9695;BME280;4690;52.422;13.486;2023-09-19T09:03:23;100729.25;;;21.52;49.38
9695;BME280;4690;52.422;13.486;2023-09-19T09:05:51;100733.47;;;21.68;49.20
9695;BME280;4690;52.422;13.486;2023-09-19T09:08:19;100736.63;;;21.62;48.12
9695;BME280;4690;52.422;13.486;2023-09-19T09:10:48;100734.94;;;21.42;49.10
9695;BME280;4690;52.422;13.486;2023-09-19T09:13:16;100738.22;;;21.49;49.84
9695;BME280;4690;52.422;13.486;2023-09-19T09:15:42;100738.72;;;21.51;49.76
9695;BME280;4690;52.422;13.486;2023-09-19T09:18:10;100745.75;;;21.67;49.32
9695;BME280;4690;52.422;13.486;2023-09-19T09:20:36;100742.38;;;21.52;49.09
9695;BME280;4690;52.422;13.486;2023-09-19T09:23:02;100752.63;;;21.75;49.39
9695;BME280;4690;52.422;13.486;2023-09-19T09:25:52;100763.69;;;21.99;49.24
9695;BME280;4690;52.422;13.486;2023-09-19T09:28:34;100754.41;;;22.23;48.26
9695;BME280;4690;52.422;13.486;2023-09-19T09:31:01;100767.06;;;22.34;47.06
9695;BME280;4690;52.422;13.486;2023-09-19T09:33:38;100748.78;;;22.42;46.95
9695;BME280;4690;52.422;13.486;2023-09-19T09:36:05;100751.88;;;22.40;45.09
9695;BME280;4690;52.422;13.486;2023-09-19T09:38:46;100755.19;;;22.42;46.47
9695;BME280;4690;52.422;13.486;2023-09-19T09:41:16;100771.13;;;22.42;44.28
9695;BME280;4690;52.422;13.486;2023-09-19T09:43:53;100761.16;;;22.35;45.40
9695;BME280;4690;52.422;13.486;2023-09-19T09:46:24;100752.31;;;22.47;44.26
9695;BME280;4690;52.422;13.486;2023-09-19T09:49:23;100757.97;;;22.42;44.73
9695;BME280;4690;52.422;13.486;2023-09-19T09:52:06;100759.97;;;22.55;44.03
9695;BME280;4690;52.422;13.486;2023-09-19T09:54:34;100754.81;;;22.63;44.58
9695;BME280;4690;52.422;13.486;2023-09-19T09:57:09;100756.03;;;22.56;43.87
9695;BME280;4690;52.422;13.486;2023-09-19T09:59:57;100756.78;;;22.29;43.92
9695;BME280;4690;52.422;13.486;2023-09-19T10:02:46;100760.28;;;22.21;44.77
9695;BME280;4690;52.422;13.486;2023-09-19T10:05:18;100764.56;;;22.32;44.18
9695;BME280;4690;52.422;13.486;2023-09-19T10:07:44;100756.00;;;22.43;44.49
9695;BME280;4690;52.422;13.486;2023-09-19T10:10:37;100766.53;;;22.32;44.38
9695;BME280;4690;52.422;13.486;2023-09-19T10:13:11;100777.03;;;22.21;43.97
9695;BME280;4690;52.422;13.486;2023-09-19T10:15:48;100785.47;;;22.35;43.93
9695;BME280;4690;52.422;13.486;2023-09-19T10:18:26;100778.31;;;22.29;44.36
9695;BME280;4690;52.422;13.486;2023-09-19T10:20:54;100770.72;;;22.48;44.27
9695;BME280;4690;52.422;13.486;2023-09-19T10:23:22;100770.34;;;22.22;43.18
9695;BME280;4690;52.422;13.486;2023-09-19T10:25:50;100794.06;;;22.38;43.07
9695;BME280;4690;52.422;13.486;2023-09-19T10:28:17;100779.91;;;22.16;42.44
9695;BME280;4690;52.422;13.486;2023-09-19T10:30:49;100771.69;;;22.25;43.18
9695;BME280;4690;52.422;13.486;2023-09-19T10:33:23;100757.53;;;22.35;44.22
9695;BME280;4690;52.422;13.486;2023-09-19T10:35:54;100767.00;;;22.53;43.86
9695;BME280;4690;52.422;13.486;2023-09-19T10:38:25;100774.53;;;22.52;44.04
9695;BME280;4690;52.422;13.486;2023-09-19T10:40:54;100761.84;;;22.60;42.71
9695;BME280;4690;52.422;13.486;2023-09-19T10:43:26;100777.38;;;22.80;43.21
9695;BME280;4690;52.422;13.486;2023-09-19T10:46:01;100762.50;;;22.85;41.21
9695;BME280;4690;52.422;13.486;2023-09-19T10:48:31;100759.31;;;23.19;41.05
9695;BME280;4690;52.422;13.486;2023-09-19T10:51:08;100767.28;;;23.39;39.06
9695;BME280;4690;52.422;13.486;2023-09-19T10:54:18;100760.75;;;23.44;37.91
9695;BME280;4690;52.422;13.486;2023-09-19T10:56:49;100772.16;;;23.20;37.95
9695;BME280;4690;52.422;13.486;2023-09-19T10:59:20;100776.81;;;22.97;36.42
9695;BME280;4690;52.422;13.486;2023-09-19T11:01:48;100760.09;;;22.92;37.82
9695;BME280;4690;52.422;13.486;2023-09-19T11:04:33;100763.16;;;22.95;37.28
9695;BME280;4690;52.422;13.486;2023-09-19T11:07:12;100760.19;;;22.59;38.26
9695;BME280;4690;52.422;13.486;2023-09-19T11:09:53;100763.31;;;22.85;37.81
9695;BME280;4690;52.422;13.486;2023-09-19T11:15:07;100766.38;;;23.02;39.05
9695;BME280;4690;52.422;13.486;2023-09-19T11:17:43;100769.78;;;23.13;37.22
9695;BME280;4690;52.422;13.486;2023-09-19T11:20:19;100776.00;;;23.24;38.30
9695;BME280;4690;52.422;13.486;2023-09-19T11:30:46;100776.25;;;22.67;37.64
9695;BME280;4690;52.422;13.486;2023-09-19T11:33:25;100769.56;;;22.49;38.62
9695;BME280;4690;52.422;13.486;2023-09-19T11:36:11;100782.28;;;22.42;39.20
9695;BME280;4690;52.422;13.486;2023-09-19T11:41:39;100775.19;;;22.63;38.65
9695;BME280;4690;52.422;13.486;2023-09-19T11:46:33;100778.84;;;22.91;40.02
9695;BME280;4690;52.422;13.486;2023-09-19T11:49:07;100777.63;;;22.83;37.50
9695;BME280;4690;52.422;13.486;2023-09-19T11:51:41;100783.56;;;22.63;38.11
9695;BME280;4690;52.422;13.486;2023-09-19T11:54:12;100780.41;;;22.70;38.63
9695;BME280;4690;52.422;13.486;2023-09-19T11:56:49;100781.84;;;22.81;38.59
9695;BME280;4690;52.422;13.486;2023-09-19T11:59:22;100780.06;;;22.71;39.01
9695;BME280;4690;52.422;13.486;2023-09-19T12:01:54;100773.47;;;22.81;39.04
9695;BME280;4690;52.422;13.486;2023-09-19T12:04:44;100783.06;;;22.28;39.68
9695;BME280;4690;52.422;13.486;2023-09-19T12:07:16;100778.44;;;22.37;39.06
9695;BME280;4690;52.422;13.486;2023-09-19T12:10:05;100777.94;;;22.49;39.03
9695;BME280;4690;52.422;13.486;2023-09-19T12:12:31;100782.31;;;22.23;38.65
9695;BME280;4690;52.422;13.486;2023-09-19T12:14:58;100780.28;;;22.28;39.26
9695;BME280;4690;52.422;13.486;2023-09-19T12:17:38;100786.28;;;22.35;39.77
9695;BME280;4690;52.422;13.486;2023-09-19T12:20:07;100779.22;;;22.57;38.89
9695;BME280;4690;52.422;13.486;2023-09-19T12:22:47;100785.38;;;22.73;38.63
9695;BME280;4690;52.422;13.486;2023-09-19T12:25:15;100791.28;;;22.85;38.94
9695;BME280;4690;52.422;13.486;2023-09-19T12:27:49;100803.56;;;22.70;37.96
9695;BME280;4690;52.422;13.486;2023-09-19T12:30:19;100791.66;;;22.65;37.12
9695;BME280;4690;52.422;13.486;2023-09-19T12:32:46;100784.72;;;22.62;38.15
9695;BME280;4690;52.422;13.486;2023-09-19T12:35:32;100786.38;;;22.63;37.89
9695;BME280;4690;52.422;13.486;2023-09-19T12:38:02;100784.53;;;22.86;37.75
9695;BME280;4690;52.422;13.486;2023-09-19T12:40:29;100790.91;;;23.05;38.03
9695;BME280;4690;52.422;13.486;2023-09-19T12:42:59;100792.34;;;23.03;38.19
9695;BME280;4690;52.422;13.486;2023-09-19T12:45:29;100783.41;;;22.87;38.07
9695;BME280;4690;52.422;13.486;2023-09-19T12:48:25;100779.31;;;22.98;38.53
9695;BME280;4690;52.422;13.486;2023-09-19T12:51:01;100775.84;;;22.88;37.85
9695;BME280;4690;52.422;13.486;2023-09-19T12:53:29;100775.84;;;22.74;37.72
9695;BME280;4690;52.422;13.486;2023-09-19T12:55:59;100785.75;;;22.66;37.32
9695;BME280;4690;52.422;13.486;2023-09-19T12:58:26;100774.44;;;22.57;37.73
9695;BME280;4690;52.422;13.486;2023-09-19T13:00:52;100774.06;;;22.64;37.90
9695;BME280;4690;52.422;13.486;2023-09-19T13:05:59;100777.34;;;22.99;37.95
9695;BME280;4690;52.422;13.486;2023-09-19T13:11:16;100770.94;;;22.66;37.89
9695;BME280;4690;52.422;13.486;2023-09-19T13:13:48;100770.41;;;22.64;38.06
9695;BME280;4690;52.422;13.486;2023-09-19T13:16:16;100776.63;;;22.60;37.93
9695;BME280;4690;52.422;13.486;2023-09-19T13:18:54;100776.84;;;22.50;38.23
9695;BME280;4690;52.422;13.486;2023-09-19T13:21:35;100785.13;;;22.55;37.38
9695;BME280;4690;52.422;13.486;2023-09-19T13:24:24;100771.16;;;22.55;38.01
9695;BME280;4690;52.422;13.486;2023-09-19T13:26:53;100769.47;;;22.54;37.54
9695;BME280;4690;52.422;13.486;2023-09-19T13:29:19;100782.88;;;22.71;39.10
9695;BME280;4690;52.422;13.486;2023-09-19T13:31:52;100775.50;;;22.62;39.21
9695;BME280;4690;52.422;13.486;2023-09-19T13:34:19;100767.88;;;22.67;38.12
9695;BME280;4690;52.422;13.486;2023-09-19T13:36:46;100766.31;;;22.75;37.25
9695;BME280;4690;52.422;13.486;2023-09-19T13:39:15;100764.75;;;22.69;37.14
9695;BME280;4690;52.422;13.486;2023-09-19T13:41:43;100769.25;;;22.83;37.40
9695;BME280;4690;52.422;13.486;2023-09-19T13:44:09;100783.22;;;22.83;36.88
9695;BME280;4690;52.422;13.486;2023-09-19T13:46:38;100763.84;;;22.73;37.28
9695;BME280;4690;52.422;13.486;2023-09-19T13:49:04;100770.34;;;22.69;37.34
9695;BME280;4690;52.422;13.486;2023-09-19T13:51:31;100769.25;;;22.83;38.04
9695;BME280;4690;52.422;13.486;2023-09-19T13:53:57;100771.56;;;22.95;38.05
9695;BME280;4690;52.422;13.486;2023-09-19T13:56:23;100773.94;;;23.02;37.53
9695;BME280;4690;52.422;13.486;2023-09-19T13:58:50;100766.47;;;22.97;37.29
9695;BME280;4690;52.422;13.486;2023-09-19T14:01:15;100755.72;;;23.04;37.47
9695;BME280;4690;52.422;13.486;2023-09-19T14:03:42;100761.31;;;23.04;36.95
9695;BME280;4690;52.422;13.486;2023-09-19T14:06:12;100765.38;;;22.79;36.91
9695;BME280;4690;52.422;13.486;2023-09-19T14:08:38;100760.06;;;22.50;37.97